sensor_id;sensor_type;location;lat;lon;timestamp;pressure;altitude;pressure_sealevel;temperature;humidity
44349;BME280;30068;50.986;4.564;2023-08-12T00:00:47;101784.34;;;25.91;60.69
44349;BME280;30068;50.986;4.564;2023-08-12T00:03:12;101788.78;;;25.92;60.50
44349;BME280;30068;50.986;4.564;2023-08-12T00:05:37;101779.72;;;25.92;60.49
44349;BME280;30068;50.986;4.564;2023-08-12T00:08:05;101778.69;;;25.93;60.42
44349;BME280;30068;50.986;4.564;2023-08-12T00:10:30;101781.41;;;25.93;60.48
44349;BME280;30068;50.986;4.564;2023-08-12T00:12:55;101783.06;;;25.94;60.31
44349;BME280;30068;50.986;4.564;2023-08-12T00:15:20;101789.19;;;25.96;60.40
44349;BME280;30068;50.986;4.564;2023-08-12T00:17:46;101785.81;;;25.94;59.82
44349;BME280;30068;50.986;4.564;2023-08-12T00:20:11;101781.19;;;25.94;60.27
44349;BME280;30068;50.986;4.564;2023-08-12T00:22:37;101767.50;;;25.94;60.29
44349;BME280;30068;50.986;4.564;2023-08-12T00:25:03;101769.19;;;25.95;59.85
44349;BME280;30068;50.986;4.564;2023-08-12T00:27:28;101771.09;;;25.95;59.89
44349;BME280;30068;50.986;4.564;2023-08-12T00:29:54;101771.94;;;25.95;60.24
44349;BME280;30068;50.986;4.564;2023-08-12T00:32:19;101770.03;;;25.96;60.19
44349;BME280;30068;50.986;4.564;2023-08-12T00:34:44;101763.53;;;25.97;59.83
44349;BME280;30068;50.986;4.564;2023-08-12T00:37:09;101767.97;;;25.98;60.19
44349;BME280;30068;50.986;4.564;2023-08-12T00:39:35;101762.69;;;25.96;59.98
44349;BME280;30068;50.986;4.564;2023-08-12T00:42:00;101764.38;;;25.98;59.66
44349;BME280;30068;50.986;4.564;2023-08-12T00:44:25;101758.06;;;25.97;59.80
44349;BME280;30068;50.986;4.564;2023-08-12T00:46:50;101755.31;;;25.97;59.80
44349;BME280;30068;50.986;4.564;2023-08-12T00:49:16;101752.59;;;25.97;60.00
44349;BME280;30068;50.986;4.564;2023-08-12T00:51:42;101748.81;;;25.98;60.02
44349;BME280;30068;50.986;4.564;2023-08-12T00:54:10;101752.59;;;25.97;59.98
44349;BME280;30068;50.986;4.564;2023-08-12T00:56:38;101744.38;;;25.97;59.87
44349;BME280;30068;50.986;4.564;2023-08-12T00:59:04;101741.66;;;25.97;59.74
44349;BME280;30068;50.986;4.564;2023-08-12T01:01:30;101735.13;;;25.98;59.75
44349;BME280;30068;50.986;4.564;2023-08-12T01:03:56;101727.78;;;25.99;59.64
44349;BME280;30068;50.986;4.564;2023-08-12T01:06:21;101726.94;;;25.98;59.83
44349;BME280;30068;50.986;4.564;2023-08-12T01:08:47;101733.44;;;25.97;61.07
44349;BME280;30068;50.986;4.564;2023-08-12T01:11:14;101727.94;;;25.90;60.89
44349;BME280;30068;50.986;4.564;2023-08-12T01:13:49;101727.94;;;25.84;61.52
44349;BME280;30068;50.986;4.564;2023-08-12T01:16:17;101722.66;;;25.82;61.58
44349;BME280;30068;50.986;4.564;2023-08-12T01:18:44;101722.47;;;25.84;61.49
44349;BME280;30068;50.986;4.564;2023-08-12T01:21:10;101715.94;;;25.85;61.51
44349;BME280;30068;50.986;4.564;2023-08-12T01:23:37;101716.56;;;25.87;61.37
44349;BME280;30068;50.986;4.564;2023-08-12T01:26:04;101716.56;;;25.87;60.94
44349;BME280;30068;50.986;4.564;2023-08-12T01:28:29;101715.53;;;25.88;61.37
44349;BME280;30068;50.986;4.564;2023-08-12T01:31:15;101719.09;;;25.88;61.29
44349;BME280;30068;50.986;4.564;2023-08-12T01:33:55;101724.56;;;25.88;61.00
44349;BME280;30068;50.986;4.564;2023-08-12T01:36:23;101721.00;;;25.88;61.24
44349;BME280;30068;50.986;4.564;2023-08-12T01:38:50;101715.31;;;25.89;60.86
44349;BME280;30068;50.986;4.564;2023-08-12T01:41:16;101709.00;;;25.89;61.03
44349;BME280;30068;50.986;4.564;2023-08-12T01:43:41;101707.13;;;25.89;60.88
44349;BME280;30068;50.986;4.564;2023-08-12T01:46:07;101713.44;;;25.90;61.01
44349;BME280;30068;50.986;4.564;2023-08-12T01:48:32;101702.50;;;25.90;60.40
44349;BME280;30068;50.986;4.564;2023-08-12T01:50:57;101700.81;;;25.89;60.52
44349;BME280;30068;50.986;4.564;2023-08-12T01:53:23;101696.19;;;25.89;60.69
44349;BME280;30068;50.986;4.564;2023-08-12T01:55:48;101695.34;;;25.89;60.23
44349;BME280;30068;50.986;4.564;2023-08-12T01:58:14;101695.34;;;25.89;60.78
44349;BME280;30068;50.986;4.564;2023-08-12T02:00:39;101684.38;;;25.89;60.65
44349;BME280;30068;50.986;4.564;2023-08-12T02:03:04;101696.19;;;25.89;60.57
44349;BME280;30068;50.986;4.564;2023-08-12T02:05:30;101689.88;;;25.89;60.28
44349;BME280;30068;50.986;4.564;2023-08-12T02:07:55;101695.34;;;25.89;60.16
44349;BME280;30068;50.986;4.564;2023-08-12T02:10:20;101684.38;;;25.89;60.43
44349;BME280;30068;50.986;4.564;2023-08-12T02:12:45;101679.75;;;25.89;60.34
44349;BME280;30068;50.986;4.564;2023-08-12T02:15:11;101662.72;;;25.87;60.12
44349;BME280;30068;50.986;4.564;2023-08-12T02:17:36;101659.78;;;25.89;60.29
44349;BME280;30068;50.986;4.564;2023-08-12T02:20:01;101667.13;;;25.88;60.05
44349;BME280;30068;50.986;4.564;2023-08-12T02:22:28;101649.03;;;25.87;60.14
44349;BME280;30068;50.986;4.564;2023-08-12T02:24:54;101654.50;;;25.87;60.28
44349;BME280;30068;50.986;4.564;2023-08-12T02:27:19;101655.34;;;25.88;59.84
44349;BME280;30068;50.986;4.564;2023-08-12T02:29:44;101648.19;;;25.87;59.80
44349;BME280;30068;50.986;4.564;2023-08-12T02:32:10;101649.03;;;25.87;60.22
44349;BME280;30068;50.986;4.564;2023-08-12T02:34:35;101638.94;;;25.88;59.78
44349;BME280;30068;50.986;4.564;2023-08-12T02:37:00;101629.06;;;25.87;60.14
44349;BME280;30068;50.986;4.564;2023-08-12T02:39:25;101633.47;;;25.88;59.64
44349;BME280;30068;50.986;4.564;2023-08-12T02:41:51;101631.78;;;25.87;59.59
44349;BME280;30068;50.986;4.564;2023-08-12T02:44:16;101628.00;;;25.88;60.12
44349;BME280;30068;50.986;4.564;2023-08-12T02:46:42;101622.72;;;25.86;59.98
44349;BME280;30068;50.986;4.564;2023-08-12T02:49:07;101622.97;;;25.85;60.01
44349;BME280;30068;50.986;4.564;2023-08-12T02:51:32;101626.09;;;25.82;60.11
44349;BME280;30068;50.986;4.564;2023-08-12T02:53:57;101625.91;;;25.83;60.10
44349;BME280;30068;50.986;4.564;2023-08-12T02:56:23;101626.75;;;25.84;59.76
44349;BME280;30068;50.986;4.564;2023-08-12T02:58:48;101622.53;;;25.81;59.64
44349;BME280;30068;50.986;4.564;2023-08-12T03:01:13;101628.19;;;25.80;60.04
44349;BME280;30068;50.986;4.564;2023-08-12T03:03:38;101623.78;;;25.79;60.20
44349;BME280;30068;50.986;4.564;2023-08-12T03:06:05;101633.03;;;25.78;60.04
44349;BME280;30068;50.986;4.564;2023-08-12T03:08:30;101630.13;;;25.79;60.19
44349;BME280;30068;50.986;4.564;2023-08-12T03:11:02;101621.06;;;25.79;60.13
44349;BME280;30068;50.986;4.564;2023-08-12T03:13:27;101617.47;;;25.78;59.96
44349;BME280;30068;50.986;4.564;2023-08-12T03:15:53;101622.09;;;25.78;59.82
44349;BME280;30068;50.986;4.564;2023-08-12T03:18:18;101622.09;;;25.78;59.86
44349;BME280;30068;50.986;4.564;2023-08-12T03:20:43;101608.63;;;25.76;60.24
44349;BME280;30068;50.986;4.564;2023-08-12T03:23:24;101604.00;;;25.77;60.22
44349;BME280;30068;50.986;4.564;2023-08-12T03:25:49;101606.75;;;25.77;59.79
44349;BME280;30068;50.986;4.564;2023-08-12T03:28:15;101604.84;;;25.77;60.15
44349;BME280;30068;50.986;4.564;2023-08-12T03:30:41;101597.50;;;25.78;59.76
44349;BME280;30068;50.986;4.564;2023-08-12T03:33:06;101594.75;;;25.78;60.07
44349;BME280;30068;50.986;4.564;2023-08-12T03:35:31;101605.69;;;25.78;60.04
44349;BME280;30068;50.986;4.564;2023-08-12T03:37:56;101603.81;;;25.78;59.72
44349;BME280;30068;50.986;4.564;2023-08-12T03:40:22;101592.03;;;25.78;60.00
44349;BME280;30068;50.986;4.564;2023-08-12T03:42:47;101587.59;;;25.77;59.85
44349;BME280;30068;50.986;4.564;2023-08-12T03:45:12;101581.28;;;25.76;60.05
44349;BME280;30068;50.986;4.564;2023-08-12T03:47:37;101585.06;;;25.75;59.94
44349;BME280;30068;50.986;4.564;2023-08-12T03:50:03;101582.34;;;25.75;59.81
44349;BME280;30068;50.986;4.564;2023-08-12T03:52:28;101589.69;;;25.75;59.94
44349;BME280;30068;50.986;4.564;2023-08-12T03:54:53;101580.84;;;25.73;59.92
44349;BME280;30068;50.986;4.564;2023-08-12T03:57:19;101586.31;;;25.73;60.08
44349;BME280;30068;50.986;4.564;2023-08-12T03:59:44;101573.72;;;25.72;60.01
44349;BME280;30068;50.986;4.564;2023-08-12T04:02:09;101551.84;;;25.72;59.71
44349;BME280;30068;50.986;4.564;2023-08-12T04:04:34;101571.84;;;25.72;59.58
44349;BME280;30068;50.986;4.564;2023-08-12T04:06:59;101555.44;;;25.72;59.93
44349;BME280;30068;50.986;4.564;2023-08-12T04:09:25;101557.94;;;25.74;59.96
44349;BME280;30068;50.986;4.564;2023-08-12T04:11:50;101550.78;;;25.73;60.07
44349;BME280;30068;50.986;4.564;2023-08-12T04:14:16;101559.81;;;25.73;60.03
44349;BME280;30068;50.986;4.564;2023-08-12T04:16:41;101548.88;;;25.73;59.94
44349;BME280;30068;50.986;4.564;2023-08-12T04:19:06;101548.03;;;25.73;59.99
44349;BME280;30068;50.986;4.564;2023-08-12T04:21:31;101547.00;;;25.74;59.93
44349;BME280;30068;50.986;4.564;2023-08-12T04:23:57;101545.31;;;25.73;59.83
44349;BME280;30068;50.986;4.564;2023-08-12T04:26:22;101545.31;;;25.73;60.05
44349;BME280;30068;50.986;4.564;2023-08-12T04:28:47;101536.28;;;25.72;59.78
44349;BME280;30068;50.986;4.564;2023-08-12T04:31:12;101534.38;;;25.73;59.60
44349;BME280;30068;50.986;4.564;2023-08-12T04:33:38;101529.97;;;25.72;59.89
44349;BME280;30068;50.986;4.564;2023-08-12T04:36:03;101522.81;;;25.71;59.57
44349;BME280;30068;50.986;4.564;2023-08-12T04:38:29;101531.88;;;25.71;60.02
44349;BME280;30068;50.986;4.564;2023-08-12T04:40:54;101527.25;;;25.72;59.52
44349;BME280;30068;50.986;4.564;2023-08-12T04:43:20;101529.97;;;25.72;59.51
44349;BME280;30068;50.986;4.564;2023-08-12T04:45:46;101524.50;;;25.72;59.79
44349;BME280;30068;50.986;4.564;2023-08-12T04:48:12;101529.97;;;25.72;60.05
44349;BME280;30068;50.986;4.564;2023-08-12T04:50:37;101523.66;;;25.71;59.89
44349;BME280;30068;50.986;4.564;2023-08-12T04:53:03;101527.25;;;25.72;59.83
44349;BME280;30068;50.986;4.564;2023-08-12T04:55:28;101518.41;;;25.70;59.71
44349;BME280;30068;50.986;4.564;2023-08-12T04:57:54;101521.97;;;25.70;59.87
44349;BME280;30068;50.986;4.564;2023-08-12T05:00:19;101517.34;;;25.71;59.58
44349;BME280;30068;50.986;4.564;2023-08-12T05:02:45;101510.19;;;25.70;59.92
44349;BME280;30068;50.986;4.564;2023-08-12T05:05:10;101505.56;;;25.70;59.54
44349;BME280;30068;50.986;4.564;2023-08-12T05:07:35;101505.56;;;25.70;59.50
44349;BME280;30068;50.986;4.564;2023-08-12T05:10:01;101511.03;;;25.70;59.81
44349;BME280;30068;50.986;4.564;2023-08-12T05:12:26;101512.94;;;25.70;59.60
44349;BME280;30068;50.986;4.564;2023-08-12T05:14:51;101516.50;;;25.70;59.95
44349;BME280;30068;50.986;4.564;2023-08-12T05:17:16;101506.63;;;25.69;59.42
44349;BME280;30068;50.986;4.564;2023-08-12T05:19:42;101510.19;;;25.70;59.72
44349;BME280;30068;50.986;4.564;2023-08-12T05:22:07;101503.88;;;25.69;59.95
44349;BME280;30068;50.986;4.564;2023-08-12T05:24:32;101503.88;;;25.69;59.73
44349;BME280;30068;50.986;4.564;2023-08-12T05:26:57;101502.00;;;25.70;59.59
44349;BME280;30068;50.986;4.564;2023-08-12T05:29:23;101499.47;;;25.68;59.39
44349;BME280;30068;50.986;4.564;2023-08-12T05:31:48;101508.50;;;25.69;59.75
44349;BME280;30068;50.986;4.564;2023-08-12T05:34:13;101507.47;;;25.70;59.90
44349;BME280;30068;50.986;4.564;2023-08-12T05:36:38;101505.78;;;25.69;59.77
44349;BME280;30068;50.986;4.564;2023-08-12T05:39:04;101512.28;;;25.68;59.88
44349;BME280;30068;50.986;4.564;2023-08-12T05:41:29;101512.28;;;25.68;59.93
44349;BME280;30068;50.986;4.564;2023-08-12T05:43:54;101513.97;;;25.69;60.06
44349;BME280;30068;50.986;4.564;2023-08-12T05:46:20;101508.50;;;25.69;59.87
44349;BME280;30068;50.986;4.564;2023-08-12T05:48:45;101513.97;;;25.69;59.66
44349;BME280;30068;50.986;4.564;2023-08-12T05:51:10;101504.94;;;25.68;59.91
44349;BME280;30068;50.986;4.564;2023-08-12T05:53:35;101510.41;;;25.68;59.92
44349;BME280;30068;50.986;4.564;2023-08-12T05:56:00;101506.81;;;25.68;60.00
44349;BME280;30068;50.986;4.564;2023-08-12T05:58:26;101507.66;;;25.68;59.74
44349;BME280;30068;50.986;4.564;2023-08-12T06:00:51;101512.28;;;25.68;59.64
44349;BME280;30068;50.986;4.564;2023-08-12T06:03:17;101515.03;;;25.68;59.75
44349;BME280;30068;50.986;4.564;2023-08-12T06:05:43;101507.88;;;25.67;59.91
44349;BME280;30068;50.986;4.564;2023-08-12T06:08:08;101521.53;;;25.67;60.13
44349;BME280;30068;50.986;4.564;2023-08-12T06:10:33;101512.50;;;25.66;59.75
44349;BME280;30068;50.986;4.564;2023-08-12T06:12:59;101506.22;;;25.66;59.71
44349;BME280;30068;50.986;4.564;2023-08-12T06:15:25;101512.50;;;25.66;59.97
44349;BME280;30068;50.986;4.564;2023-08-12T06:17:50;101503.03;;;25.62;59.68
44349;BME280;30068;50.986;4.564;2023-08-12T06:20:15;101508.09;;;25.65;59.71
44349;BME280;30068;50.986;4.564;2023-08-12T06:22:40;101510.84;;;25.65;60.02
44349;BME280;30068;50.986;4.564;2023-08-12T06:25:06;101512.72;;;25.65;60.20
44349;BME280;30068;50.986;4.564;2023-08-12T06:27:31;101513.56;;;25.65;60.27
44349;BME280;30068;50.986;4.564;2023-08-12T06:29:57;101520.09;;;25.64;60.08
44349;BME280;30068;50.986;4.564;2023-08-12T06:32:22;101514.63;;;25.64;60.21
44349;BME280;30068;50.986;4.564;2023-08-12T06:34:47;101518.19;;;25.65;59.75
44349;BME280;30068;50.986;4.564;2023-08-12T06:37:12;101513.97;;;25.62;59.83
44349;BME280;30068;50.986;4.564;2023-08-12T06:39:38;101518.19;;;25.65;60.16
44349;BME280;30068;50.986;4.564;2023-08-12T06:42:03;101514.81;;;25.63;60.11
44349;BME280;30068;50.986;4.564;2023-08-12T06:44:28;101514.63;;;25.64;60.18
44349;BME280;30068;50.986;4.564;2023-08-12T06:46:53;101514.81;;;25.63;60.33
44349;BME280;30068;50.986;4.564;2023-08-12T06:49:19;101517.56;;;25.63;60.01
44349;BME280;30068;50.986;4.564;2023-08-12T06:51:44;101505.56;;;25.64;59.83
44349;BME280;30068;50.986;4.564;2023-08-12T06:54:09;101511.03;;;25.64;60.20
44349;BME280;30068;50.986;4.564;2023-08-12T06:56:34;101511.03;;;25.64;59.82
44349;BME280;30068;50.986;4.564;2023-08-12T06:59:00;101517.56;;;25.63;60.28
44349;BME280;30068;50.986;4.564;2023-08-12T07:01:25;101516.50;;;25.64;60.02
44349;BME280;30068;50.986;4.564;2023-08-12T07:03:50;101508.72;;;25.61;60.02
44349;BME280;30068;50.986;4.564;2023-08-12T07:06:15;101504.94;;;25.62;59.89
44349;BME280;30068;50.986;4.564;2023-08-12T07:08:41;101510.41;;;25.62;59.92
44349;BME280;30068;50.986;4.564;2023-08-12T07:11:06;101519.44;;;25.62;60.23
44349;BME280;30068;50.986;4.564;2023-08-12T07:13:31;101509.56;;;25.61;59.89
44349;BME280;30068;50.986;4.564;2023-08-12T07:15:58;101511.44;;;25.61;60.50
44349;BME280;30068;50.986;4.564;2023-08-12T07:18:23;101510.41;;;25.62;59.85
44349;BME280;30068;50.986;4.564;2023-08-12T07:20:48;101507.66;;;25.62;60.31
44349;BME280;30068;50.986;4.564;2023-08-12T07:23:14;101506.81;;;25.61;60.45
44349;BME280;30068;50.986;4.564;2023-08-12T07:25:39;101518.59;;;25.62;60.41
44349;BME280;30068;50.986;4.564;2023-08-12T07:28:04;101528.69;;;25.61;60.34
44349;BME280;30068;50.986;4.564;2023-08-12T07:30:29;101527.84;;;25.61;60.48
44349;BME280;30068;50.986;4.564;2023-08-12T07:32:55;101523.41;;;25.60;60.29
44349;BME280;30068;50.986;4.564;2023-08-12T07:35:20;101530.56;;;25.61;60.55
44349;BME280;30068;50.986;4.564;2023-08-12T07:37:45;101528.88;;;25.60;60.43
44349;BME280;30068;50.986;4.564;2023-08-12T07:40:11;101537.09;;;25.60;60.25
44349;BME280;30068;50.986;4.564;2023-08-12T07:42:37;101545.28;;;25.60;60.34
44349;BME280;30068;50.986;4.564;2023-08-12T07:45:02;101548.03;;;25.60;60.20
44349;BME280;30068;50.986;4.564;2023-08-12T07:47:28;101557.31;;;25.59;60.51
44349;BME280;30068;50.986;4.564;2023-08-12T07:49:53;101549.09;;;25.59;60.14
44349;BME280;30068;50.986;4.564;2023-08-12T07:52:19;101556.47;;;25.58;60.50
44349;BME280;30068;50.986;4.564;2023-08-12T07:54:44;101562.78;;;25.59;60.31
44349;BME280;30068;50.986;4.564;2023-08-12T07:57:09;101555.63;;;25.58;60.57
44349;BME280;30068;50.986;4.564;2023-08-12T07:59:34;101553.72;;;25.58;60.06
44349;BME280;30068;50.986;4.564;2023-08-12T08:02:00;101560.19;;;25.57;60.47
44349;BME280;30068;50.986;4.564;2023-08-12T08:04:25;101555.78;;;25.56;60.31
44349;BME280;30068;50.986;4.564;2023-08-12T08:06:50;101559.34;;;25.56;60.25
44349;BME280;30068;50.986;4.564;2023-08-12T08:09:16;101559.75;;;25.53;60.11
44349;BME280;30068;50.986;4.564;2023-08-12T08:11:41;101567.09;;;25.53;60.19
44349;BME280;30068;50.986;4.564;2023-08-12T08:14:06;101577.84;;;25.54;60.63
44349;BME280;30068;50.986;4.564;2023-08-12T08:16:31;101574.06;;;25.55;60.79
44349;BME280;30068;50.986;4.564;2023-08-12T08:18:57;101578.31;;;25.58;60.89
44349;BME280;30068;50.986;4.564;2023-08-12T08:21:22;101577.03;;;25.61;60.68
44349;BME280;30068;50.986;4.564;2023-08-12T08:23:47;101589.66;;;25.62;60.64
44349;BME280;30068;50.986;4.564;2023-08-12T08:26:12;101593.06;;;25.64;60.34
44349;BME280;30068;50.986;4.564;2023-08-12T08:28:38;101594.75;;;25.65;60.78
44349;BME280;30068;50.986;4.564;2023-08-12T08:31:03;101588.84;;;25.68;60.64
44349;BME280;30068;50.986;4.564;2023-08-12T08:33:29;101599.56;;;25.69;60.46
44349;BME280;30068;50.986;4.564;2023-08-12T08:35:54;101598.53;;;25.70;60.65
44349;BME280;30068;50.986;4.564;2023-08-12T08:38:19;101612.00;;;25.72;60.43
44349;BME280;30068;50.986;4.564;2023-08-12T08:40:45;101609.88;;;25.74;60.15
44349;BME280;30068;50.986;4.564;2023-08-12T08:43:10;101614.31;;;25.75;59.97
44349;BME280;30068;50.986;4.564;2023-08-12T08:45:39;101612.22;;;25.77;60.40
44349;BME280;30068;50.986;4.564;2023-08-12T08:48:07;101615.78;;;25.77;60.06
44349;BME280;30068;50.986;4.564;2023-08-12T08:50:32;101613.91;;;25.78;59.85
44349;BME280;30068;50.986;4.564;2023-08-12T08:52:58;101619.16;;;25.79;59.93
44349;BME280;30068;50.986;4.564;2023-08-12T08:55:24;101623.56;;;25.80;59.85
44349;BME280;30068;50.986;4.564;2023-08-12T08:57:50;101631.56;;;25.82;60.21
44349;BME280;30068;50.986;4.564;2023-08-12T09:00:16;101622.53;;;25.81;60.11
44349;BME280;30068;50.986;4.564;2023-08-12T09:02:42;101620.44;;;25.83;59.89
44349;BME280;30068;50.986;4.564;2023-08-12T09:05:08;101626.75;;;25.84;59.72
44349;BME280;30068;50.986;4.564;2023-08-12T09:07:33;101624.00;;;25.84;59.88
44349;BME280;30068;50.986;4.564;2023-08-12T09:09:59;101633.91;;;25.85;60.17
44349;BME280;30068;50.986;4.564;2023-08-12T09:12:25;101637.25;;;25.87;60.06
44349;BME280;30068;50.986;4.564;2023-08-12T09:14:51;101635.59;;;25.86;59.57
44349;BME280;30068;50.986;4.564;2023-08-12T09:17:16;101645.47;;;25.87;60.04
44349;BME280;30068;50.986;4.564;2023-08-12T09:19:41;101640.00;;;25.87;59.69
44349;BME280;30068;50.986;4.564;2023-08-12T09:22:07;101638.09;;;25.87;60.13
44349;BME280;30068;50.986;4.564;2023-08-12T09:24:34;101640.63;;;25.89;59.60
44349;BME280;30068;50.986;4.564;2023-08-12T09:26:59;101637.91;;;25.89;59.78
44349;BME280;30068;50.986;4.564;2023-08-12T09:29:32;101637.91;;;25.89;60.02
44349;BME280;30068;50.986;4.564;2023-08-12T09:32:13;101639.38;;;25.91;59.99
44349;BME280;30068;50.986;4.564;2023-08-12T09:34:49;101642.97;;;25.92;59.84
44349;BME280;30068;50.986;4.564;2023-08-12T09:37:15;101649.28;;;25.92;59.99
44349;BME280;30068;50.986;4.564;2023-08-12T09:39:40;101652.03;;;25.92;59.93
44349;BME280;30068;50.986;4.564;2023-08-12T09:42:06;101652.88;;;25.93;59.49
44349;BME280;30068;50.986;4.564;2023-08-12T09:44:34;101649.91;;;25.94;59.84
44349;BME280;30068;50.986;4.564;2023-08-12T09:46:59;101641.50;;;25.96;59.67
44349;BME280;30068;50.986;4.564;2023-08-12T09:49:25;101634.31;;;25.95;59.82
44349;BME280;30068;50.986;4.564;2023-08-12T09:51:51;101646.97;;;25.96;59.72
44349;BME280;30068;50.986;4.564;2023-08-12T09:54:17;101652.44;;;25.96;59.63
44349;BME280;30068;50.986;4.564;2023-08-12T09:56:42;101656.00;;;25.96;59.79
44349;BME280;30068;50.986;4.564;2023-08-12T09:59:08;101662.31;;;25.97;59.50
44349;BME280;30068;50.986;4.564;2023-08-12T10:01:34;101663.16;;;25.98;59.48
44349;BME280;30068;50.986;4.564;2023-08-12T10:04:00;101665.06;;;25.97;59.61
44349;BME280;30068;50.986;4.564;2023-08-12T10:06:26;101659.59;;;25.97;59.49
44349;BME280;30068;50.986;4.564;2023-08-12T10:08:52;101665.91;;;25.98;59.38
44349;BME280;30068;50.986;4.564;2023-08-12T10:11:17;101659.59;;;25.97;59.10
44349;BME280;30068;50.986;4.564;2023-08-12T10:13:43;101660.22;;;25.99;59.59
44349;BME280;30068;50.986;4.564;2023-08-12T10:16:09;101663.81;;;26.00;59.42
44349;BME280;30068;50.986;4.564;2023-08-12T10:18:34;101661.91;;;26.00;59.22
44349;BME280;30068;50.986;4.564;2023-08-12T10:21:01;101661.09;;;26.00;59.07
44349;BME280;30068;50.986;4.564;2023-08-12T10:23:26;101660.22;;;25.99;59.16
44349;BME280;30068;50.986;4.564;2023-08-12T10:25:53;101655.38;;;26.01;59.41
44349;BME280;30068;50.986;4.564;2023-08-12T10:28:18;101658.13;;;26.01;59.20
44349;BME280;30068;50.986;4.564;2023-08-12T10:30:44;101662.53;;;26.02;59.20
44349;BME280;30068;50.986;4.564;2023-08-12T10:33:09;101652.66;;;26.01;59.30
44349;BME280;30068;50.986;4.564;2023-08-12T10:35:45;101638.97;;;26.01;59.11
44349;BME280;30068;50.986;4.564;2023-08-12T10:38:11;101636.22;;;26.01;58.81
44349;BME280;30068;50.986;4.564;2023-08-12T10:40:36;101643.38;;;26.02;59.29
44349;BME280;30068;50.986;4.564;2023-08-12T10:43:02;101644.22;;;26.03;59.10
44349;BME280;30068;50.986;4.564;2023-08-12T10:45:40;101646.97;;;26.03;58.98
44349;BME280;30068;50.986;4.564;2023-08-12T10:50:36;101644.03;;;26.04;59.16
44349;BME280;30068;50.986;4.564;2023-08-12T10:55:48;101632.25;;;26.04;59.09
44349;BME280;30068;50.986;4.564;2023-08-12T10:58:13;101638.38;;;26.06;58.71
44349;BME280;30068;50.986;4.564;2023-08-12T11:00:51;101642.16;;;26.05;58.81
44349;BME280;30068;50.986;4.564;2023-08-12T11:03:18;101638.38;;;26.06;58.85
44349;BME280;30068;50.986;4.564;2023-08-12T11:05:43;101637.50;;;26.05;58.88
44349;BME280;30068;50.986;4.564;2023-08-12T11:08:11;101631.81;;;26.07;59.08
44349;BME280;30068;50.986;4.564;2023-08-12T11:10:37;101639.81;;;26.08;58.70
44349;BME280;30068;50.986;4.564;2023-08-12T11:13:03;101637.28;;;26.07;59.00
44349;BME280;30068;50.986;4.564;2023-08-12T11:15:50;101638.13;;;26.07;58.69
44349;BME280;30068;50.986;4.564;2023-08-12T11:18:18;101627.81;;;26.09;58.78
44349;BME280;30068;50.986;4.564;2023-08-12T11:20:44;101642.56;;;26.08;58.89
44349;BME280;30068;50.986;4.564;2023-08-12T11:23:09;101638.56;;;26.11;58.86
44349;BME280;30068;50.986;4.564;2023-08-12T11:25:35;101630.38;;;26.11;58.59
44349;BME280;30068;50.986;4.564;2023-08-12T11:28:01;101632.25;;;26.10;58.60
44349;BME280;30068;50.986;4.564;2023-08-12T11:30:26;101628.47;;;26.11;58.49
44349;BME280;30068;50.986;4.564;2023-08-12T11:32:52;101628.69;;;26.10;58.73
44349;BME280;30068;50.986;4.564;2023-08-12T11:35:18;101627.63;;;26.11;58.63
44349;BME280;30068;50.986;4.564;2023-08-12T11:37:45;101642.34;;;26.10;58.70
44349;BME280;30068;50.986;4.564;2023-08-12T11:40:11;101639.41;;;26.11;58.50
44349;BME280;30068;50.986;4.564;2023-08-12T11:42:39;101627.63;;;26.11;58.54
44349;BME280;30068;50.986;4.564;2023-08-12T11:45:05;101632.25;;;26.10;58.53
44349;BME280;30068;50.986;4.564;2023-08-12T11:47:30;101629.72;;;26.09;58.57
44349;BME280;30068;50.986;4.564;2023-08-12T11:49:56;101646.97;;;26.09;58.68
44349;BME280;30068;50.986;4.564;2023-08-12T11:52:21;101634.34;;;26.08;58.81
44349;BME280;30068;50.986;4.564;2023-08-12T11:54:48;101628.88;;;26.08;58.42
44349;BME280;30068;50.986;4.564;2023-08-12T11:57:14;101634.34;;;26.08;58.62
44349;BME280;30068;50.986;4.564;2023-08-12T11:59:39;101629.53;;;26.10;58.41
44349;BME280;30068;50.986;4.564;2023-08-12T12:02:04;101620.66;;;26.08;58.52
44349;BME280;30068;50.986;4.564;2023-08-12T12:04:32;101632.25;;;26.10;58.76
44349;BME280;30068;50.986;4.564;2023-08-12T12:06:58;101616.69;;;26.11;58.29
44349;BME280;30068;50.986;4.564;2023-08-12T12:09:24;101619.22;;;26.12;58.57
44349;BME280;30068;50.986;4.564;2023-08-12T12:11:54;101622.78;;;26.13;58.52
44349;BME280;30068;50.986;4.564;2023-08-12T12:14:20;101615.44;;;26.13;58.51
44349;BME280;30068;50.986;4.564;2023-08-12T12:16:46;101634.13;;;26.03;58.70
44349;BME280;30068;50.986;4.564;2023-08-12T12:19:13;101628.03;;;26.01;57.35
44349;BME280;30068;50.986;4.564;2023-08-12T12:21:39;101629.72;;;26.02;57.68
44349;BME280;30068;50.986;4.564;2023-08-12T12:24:05;101628.47;;;26.05;57.57
44349;BME280;30068;50.986;4.564;2023-08-12T12:26:31;101633.50;;;26.08;57.42
44349;BME280;30068;50.986;4.564;2023-08-12T12:28:57;101630.38;;;26.11;57.76
44349;BME280;30068;50.986;4.564;2023-08-12T12:31:22;101632.66;;;26.14;57.27
44349;BME280;30068;50.986;4.564;2023-08-12T12:33:47;101628.88;;;26.15;57.89
44349;BME280;30068;50.986;4.564;2023-08-12T12:36:12;101629.72;;;26.15;57.37
44349;BME280;30068;50.986;4.564;2023-08-12T12:38:38;101638.78;;;26.16;57.54
44349;BME280;30068;50.986;4.564;2023-08-12T12:41:03;101637.53;;;26.18;57.44
44349;BME280;30068;50.986;4.564;2023-08-12T12:43:28;101638.56;;;26.17;57.57
44349;BME280;30068;50.986;4.564;2023-08-12T12:45:53;101647.44;;;26.19;57.69
44349;BME280;30068;50.986;4.564;2023-08-12T12:48:18;101651.81;;;26.20;57.51